• Join FlightAware (Why Join?)
  • Login
  • US Flag GB Flag 
10:06 EST


 

Airport Tracker/Info


-or-


 

Live Flight TrackerFlight Track Log ✈ FLG3729 ✈ 06-May-2013 ✈ KALB - KDTW

Flight Track Log - Related Links

Times and Time Zones

All times are in EDT time to prevent confusion due to time zone crossing. See the FLG3729 flight status page for this flight to view local times or setup timezone preferences in your user account.

Time Position Orientation Groundspeed Altitude Reporting Facility
EDT Latitude Longitude Course Direction KTS MPH feet Rate Location/Type
05:55 42.7297 -73.8081 304° West 158 182 1,200  Level Boston Center
05:56 42.7000 -73.8497 226° Southwest 214 246 3,100 2,059 Climbing Boston Center
05:58 42.8297 -74.3078 281° West  Level FlightAware Approximate
05:58 42.8169 -73.9911 318° Northwest 278 320 8,200  Level Boston Center
05:59 42.8507 -74.4374 283° West  Level FlightAware Approximate
05:59 42.8764 -74.0664 317° Northwest 289 333 10,200  Level Boston Center
06:00 42.8809 -74.5617 304° West  Level FlightAware Approximate
06:00 42.9439 -74.1617 314° West 305 351 12,200  Level Boston Center
06:01 42.9567 -74.2783 279° West 316 364 13,800 1,650 Climbing Boston Center
06:02 42.9750 -74.4267 280° West 355 409 15,500 1,545 Climbing Boston Center
06:03 42.9947 -74.5947 279° West 378 435 17,200 1,318 Climbing Boston Center
06:04 43.0089 -74.7258 278° West 383 441 18,400 1,150 Climbing Boston Center
06:05 43.0264 -74.8883 278° West 389 448 19,500 1,100 Climbing Boston Center
06:06 43.0419 -75.0394 278° West 394 453 20,600 1,100 Climbing Boston Center
06:07 43.0572 -75.1881 278° West 394 453 21,700 1,100 Climbing Boston Center
06:08 43.0742 -75.3394 279° West 399 459 22,800 850 Climbing Boston Center
06:09 43.0872 -75.4767 277° West 404 465 23,400 727 Climbing Boston Center
06:11 43.1053 -75.6594 278° West 410 472 24,400 833 Climbing Boston Center
06:12 43.1247 -75.8456 278° West 410 472 25,400 611 Climbing Boston Center
06:14 43.1572 -76.2114 277° West 421 484 26,600 498 Climbing Cleveland Center
06:15 43.1483 -76.3714 266° West 421 484 27,100 496 Climbing Cleveland Center
06:16 43.1333 -76.5289 263° West 426 490 27,600 564 Climbing Cleveland Center
06:17 43.1164 -76.7064 263° West 426 490 28,200 559 Climbing Cleveland Center
06:18 43.1028 -76.8664 263° West 426 490 28,700 496 Climbing Cleveland Center
06:19 43.0892 -77.0236 263° West 426 490 29,200 496 Climbing Cleveland Center
06:20 43.0753 -77.1867 263° West 431 496 29,700 400 Climbing Cleveland Center
06:21 43.0589 -77.3439 262° West 431 496 30,000 151 Climbing Cleveland Center
06:22 43.0425 -77.5067 262° West 431 496 30,000  Level Cleveland Center
06:23 43.0281 -77.6722 263° West 431 496 30,000  Level Cleveland Center
06:24 43.0114 -77.8403 262° West 441 507 30,000  Level Cleveland Center
06:25 42.9964 -78.0058 263° West 447 514 30,000  Level Cleveland Center
06:26 42.9769 -78.1739 261° West 447 514 30,000  Level Cleveland Center
06:27 42.9633 -78.3278 263° West 453 521 30,000  Level Cleveland Center
06:28 42.9458 -78.4958 262° West 453 521 30,000  Level Cleveland Center
06:29 42.9278 -78.6664 262° West 453 521 30,000  Level Cleveland Center
06:30 42.9033 -78.8344 259° West 453 521 30,000  Level Cleveland Center
06:31 42.8789 -79.0022 259° West 453 521 30,000  Level Cleveland Center
06:32 42.8558 -79.1700 259° West 453 521 30,000  Level Cleveland Center
06:33 42.8286 -79.3375 258° West 452 520 30,000  Level Cleveland Center
06:34 42.8053 -79.5022 259° West 452 520 30,000  Level Cleveland Center
06:35 42.7817 -79.6722 259° West 452 520 30,000  Level Cleveland Center
06:36 42.7581 -79.8394 259° West 452 520 30,000  Level Cleveland Center
06:37 42.7422 -80.0064 263° West 452 520 30,000  Level Cleveland Center
06:38 42.7389 -80.1847 269° West 459 528 30,000 -51 Level Cleveland Center
06:39 42.7308 -80.3514 266° West 459 528 29,900 -356 Descending Cleveland Center
06:40 42.7228 -80.5267 266° West 459 528 29,300 -645 Descending Cleveland Center
06:41 42.7144 -80.7047 266° West 464 534 28,600 -645 Descending Cleveland Center
06:42 42.7058 -80.8828 266° West 474 545 28,000 -298 Descending Cleveland Center
06:43 42.6864 -81.0578 261° West 479 551 28,000  Level Cleveland Center
06:44 42.6667 -81.2383 262° West 474 545 28,000 -397 Level Cleveland Center
06:45 42.6467 -81.4244 262° West 468 539 27,200 -1,641 Descending Cleveland Center
06:46 42.6244 -81.5989 260° West 468 539 24,800 -2,462 Descending Cleveland Center
06:47 42.6019 -81.7764 260° West 468 539 22,400 -2,410 Descending Cleveland Center
06:48 42.5814 -81.9422 260° West 463 533 19,900 -2,350 Descending Cleveland Center
06:49 42.5606 -82.1025 260° West 458 527 17,700 -2,288 Descending Cleveland Center
06:50 42.5439 -82.2600 262° West 446 513 15,400 -2,118 Descending Cleveland Center
06:51 42.5250 -82.4117 260° West 417 480 13,500 -1,784 Descending Cleveland Center
06:52 42.5039 -82.5489 258° West 398 458 12,100 -796 Descending Cleveland Center
06:53 42.4578 -82.6828 245° Southwest 394 453 12,000 -49 Descending Cleveland Center
06:54 42.4114 -82.8161 245° Southwest 402 463 12,000  Level Cleveland Center
06:55 42.3564 -82.9658 244° Southwest 400 460 12,000  Level Cleveland Center
06:56 42.3183 -83.0881 247° West 392 451 12,000 -310 Level Cleveland Center
06:57 42.3106 -83.2422 266° West 360 414 11,400 -496 Descending Cleveland Center
06:58 42.2972 -83.3622 261° West 291 335 11,000 -466 Descending Cleveland Center
06:59 42.2581 -83.4392 235° Southwest 278 320 10,500 -1,385 Descending Cleveland Center
07:00 42.1961 -83.4925 213° Southwest 254 292 8,300 -2,066 Descending Cleveland Center
07:01 42.1467 -83.5547 223° Southwest 241 277 6,300 -1,610 Descending Cleveland Center
07:02 42.0969 -83.5439 171° South 196 226 5,000 -1,200 Descending Cleveland Center
07:03 42.1197 -83.4611 70° East 192 221 3,600 -1,173 Descending Cleveland Center
07:04 42.1542 -83.4178 43° Northeast 146 168 2,400 -1,240 Descending Cleveland Center
07:05 42.1881 -83.3969 24° Northeast 134 154 1,100 -1,279 Descending Cleveland Center